createdAt,value
2019-04-21T00:01:30.672Z,40.92
2019-04-21T00:04:13.672Z,41.31
2019-04-21T00:06:55.346Z,41.30
2019-04-21T00:09:32.663Z,41.40
2019-04-21T00:12:05.666Z,41.64
2019-04-21T00:14:22.125Z,41.51
2019-04-21T00:16:52.920Z,41.36
2019-04-21T00:19:31.785Z,41.30
2019-04-21T00:22:08.622Z,41.70
2019-04-21T00:24:44.428Z,42.06
2019-04-21T00:27:21.404Z,42.24
2019-04-21T00:29:51.803Z,41.87
2019-04-21T00:32:24.567Z,41.80
2019-04-21T00:34:42.046Z,41.86
2019-04-21T00:37:20.747Z,41.96
2019-04-21T00:40:05.933Z,42.27
2019-04-21T00:42:34.235Z,42.17
2019-04-21T00:45:01.951Z,41.88
2019-04-21T00:47:44.666Z,41.72
2019-04-21T00:50:22.884Z,41.84
2019-04-21T00:52:51.474Z,41.84
2019-04-21T00:55:42.910Z,41.87
2019-04-21T00:58:14.788Z,41.79
2019-04-21T01:00:44.510Z,41.76
2019-04-21T01:03:10.973Z,41.77
2019-04-21T01:05:48.317Z,41.75
2019-04-21T01:08:13.280Z,41.85
2019-04-21T01:10:36.030Z,41.92
2019-04-21T01:13:23.328Z,42.15
2019-04-21T01:15:48.977Z,42.15
2019-04-21T01:18:23.343Z,42.16
2019-04-21T01:20:29.856Z,42.17
2019-04-21T01:23:00.297Z,42.17
2019-04-21T01:25:38.194Z,42.20
2019-04-21T01:28:23.254Z,42.31
2019-04-21T01:30:56.943Z,42.76
2019-04-21T01:33:32.354Z,43.17
2019-04-21T01:35:58.317Z,42.97
2019-04-21T01:38:38.194Z,43.26
2019-04-21T01:41:11.346Z,43.07
2019-04-21T01:43:33.951Z,42.85
2019-04-21T01:46:05.571Z,42.80
2019-04-21T01:48:36.056Z,42.76
2019-04-21T01:51:07.594Z,42.75
2019-04-21T01:53:48.622Z,42.93
2019-04-21T01:56:44.582Z,42.93
2019-04-21T01:59:06.979Z,42.97
2019-04-21T02:01:56.924Z,43.08
2019-04-21T02:04:29.305Z,42.96
2019-04-21T02:07:01.330Z,43.01
2019-04-21T02:09:35.662Z,43.05
2019-04-21T02:12:08.773Z,43.06
2019-04-21T02:14:45.631Z,43.15
2019-04-21T02:17:14.550Z,43.25
2019-04-21T02:19:37.858Z,43.38
2019-04-21T02:22:10.865Z,43.30
2019-04-21T02:24:59.877Z,43.34
2019-04-21T02:27:26.177Z,43.70
2019-04-21T02:29:55.443Z,43.66
2019-04-21T02:32:45.777Z,43.69
2019-04-21T02:35:14.753Z,43.75
2019-04-21T02:37:46.791Z,43.54
2019-04-21T02:42:46.315Z,43.62
2019-04-21T02:45:17.544Z,43.62
2019-04-21T02:48:04.369Z,43.57
2019-04-21T02:55:22.195Z,43.70
2019-04-21T02:58:03.653Z,43.76
2019-04-21T03:00:32.878Z,43.75
2019-04-21T03:03:13.992Z,43.72
2019-04-21T03:06:13.331Z,43.97
2019-04-21T03:08:50.371Z,43.94
2019-04-21T03:11:21.989Z,43.79
2019-04-21T03:13:57.665Z,43.78
2019-04-21T03:16:23.558Z,43.62
2019-04-21T03:19:06.894Z,43.67
2019-04-21T03:21:22.196Z,43.62
2019-04-21T03:29:05.815Z,43.86
2019-04-21T03:32:04.058Z,43.90
2019-04-21T03:39:01.209Z,43.87
2019-04-21T03:46:55.615Z,43.99
2019-04-21T03:49:20.634Z,44.07
2019-04-21T03:54:21.250Z,44.14
2019-04-21T03:57:13.094Z,44.17
2019-04-21T03:59:38.196Z,44.30
2019-04-21T04:02:14.778Z,44.40
2019-04-21T04:05:02.699Z,44.32
2019-04-21T04:08:04.667Z,44.35
2019-04-21T04:13:02.762Z,44.53
2019-04-21T04:15:45.319Z,44.34
2019-04-21T04:18:07.634Z,44.30
2019-04-21T04:23:07.968Z,44.30
2019-04-21T04:25:31.194Z,44.34
2019-04-21T04:30:37.835Z,44.27
2019-04-21T04:33:21.004Z,44.30
2019-04-21T04:35:52.541Z,44.51
2019-04-21T04:38:30.278Z,44.49
2019-04-21T04:40:59.729Z,44.32
2019-04-21T04:43:26.871Z,44.50
2019-04-21T04:45:56.530Z,44.42
2019-04-21T04:48:28.057Z,44.37
2019-04-21T04:51:05.794Z,44.32
2019-04-21T04:53:40.037Z,44.29
2019-04-21T04:56:07.701Z,44.13
2019-04-21T04:59:10.761Z,44.18
2019-04-21T05:01:16.470Z,44.15
2019-04-21T05:16:48.149Z,44.04
2019-04-21T05:19:10.057Z,44.40
2019-04-21T05:21:37.604Z,44.22
2019-04-21T05:23:55.882Z,44.38
2019-04-21T05:26:21.868Z,44.33
2019-04-21T05:28:56.793Z,43.94
2019-04-21T05:32:09.242Z,40.64
2019-04-21T05:34:42.936Z,37.83
2019-04-21T05:37:24.692Z,35.74
2019-04-21T05:39:57.234Z,34.63
2019-04-21T05:42:31.798Z,33.92
2019-04-21T05:45:09.962Z,33.39
2019-04-21T05:48:17.105Z,33.19
2019-04-21T05:50:37.731Z,33.21
2019-04-21T05:53:08.222Z,33.14
2019-04-21T05:58:11.566Z,33.41
2019-04-21T06:03:34.265Z,33.88
2019-04-21T06:06:08.661Z,34.27
2019-04-21T06:08:31.391Z,34.95
2019-04-21T06:11:19.042Z,35.65
2019-04-21T06:13:43.906Z,36.25
2019-04-21T06:16:21.433Z,36.71
2019-04-21T06:18:44.866Z,36.92
2019-04-21T06:21:13.157Z,37.40
2019-04-21T06:23:40.218Z,37.98
2019-04-21T06:26:26.881Z,38.50
2019-04-21T06:28:45.305Z,38.75
2019-04-21T06:31:45.088Z,38.89
2019-04-21T06:39:12.039Z,39.10
2019-04-21T06:41:34.020Z,39.04
2019-04-21T06:44:12.868Z,39.51
2019-04-21T06:46:48.880Z,39.92
2019-04-21T06:49:13.149Z,40.01
2019-04-21T06:51:44.826Z,39.76
2019-04-21T06:54:16.016Z,39.73
2019-04-21T06:56:47.909Z,39.74
2019-04-21T06:59:16.700Z,39.72
2019-04-21T07:02:29.035Z,39.65
2019-04-21T07:04:25.258Z,39.76
2019-04-21T07:06:56.310Z,39.88
2019-04-21T07:09:45.398Z,39.94
2019-04-21T07:11:56.747Z,40.03
2019-04-21T07:17:05.054Z,39.88
2019-04-21T07:19:41.232Z,39.72
2019-04-21T07:22:12.342Z,39.58
2019-04-21T07:24:37.298Z,39.40
2019-04-21T07:27:11.596Z,39.60
2019-04-21T07:29:50.590Z,39.70
2019-04-21T07:32:31.272Z,39.63
2019-04-21T07:34:47.544Z,39.85
2019-04-21T07:37:10.279Z,39.66
2019-04-21T07:39:46.664Z,39.46
2019-04-21T07:42:13.422Z,39.46
2019-04-21T07:44:46.364Z,39.33
2019-04-21T07:47:27.171Z,39.26
2019-04-21T07:50:06.833Z,39.21
2019-04-21T07:53:05.073Z,39.06
2019-04-21T07:57:51.908Z,38.81
2019-04-21T08:00:36.877Z,38.66
2019-04-21T08:03:09.606Z,38.62
2019-04-21T08:05:35.236Z,38.58
2019-04-21T08:08:06.501Z,38.52
2019-04-21T08:10:33.635Z,38.39
2019-04-21T08:13:10.310Z,38.34
2019-04-21T08:15:39.974Z,38.23
2019-04-21T08:18:17.805Z,38.22
2019-04-21T08:20:45.210Z,38.18
2019-04-21T08:23:21.566Z,38.18
2019-04-21T08:26:03.299Z,38.10
2019-04-21T08:28:20.483Z,37.98
2019-04-21T08:30:47.741Z,37.88
2019-04-21T08:38:28.055Z,37.94
2019-04-21T08:41:03.620Z,37.84
2019-04-21T08:43:39.980Z,37.79
2019-04-21T08:46:01.907Z,37.77
2019-04-21T08:48:37.575Z,37.74
2019-04-21T08:51:21.052Z,37.64
2019-04-21T08:53:42.961Z,37.46
2019-04-21T08:56:29.164Z,37.36
2019-04-21T08:59:19.254Z,37.48
2019-04-21T09:01:58.685Z,37.53
2019-04-21T09:04:41.172Z,37.43
2019-04-21T09:07:04.945Z,37.33
2019-04-21T09:09:36.837Z,37.10
2019-04-21T09:12:04.396Z,36.93
2019-04-21T09:14:39.580Z,36.74
2019-04-21T09:17:03.303Z,36.70
2019-04-21T09:19:51.726Z,36.83
2019-04-21T09:22:09.558Z,36.83
2019-04-21T09:24:41.271Z,36.79
2019-04-21T09:27:09.208Z,36.41
2019-04-21T09:29:35.398Z,36.35
2019-04-21T09:31:59.502Z,36.26
2019-04-21T09:34:33.237Z,36.19
2019-04-21T09:37:15.296Z,36.24
2019-04-21T09:39:33.715Z,35.95
2019-04-21T09:42:06.177Z,35.71
2019-04-21T09:44:40.335Z,35.60
2019-04-21T09:47:08.743Z,35.38
2019-04-21T09:49:40.069Z,35.43
2019-04-21T09:52:16.105Z,35.12
2019-04-21T09:54:52.078Z,35.20
2019-04-21T09:57:25.710Z,35.30
2019-04-21T09:59:55.962Z,35.39
2019-04-21T10:02:30.483Z,35.24
2019-04-21T10:04:48.492Z,35.26
2019-04-21T10:07:26.558Z,35.10
2019-04-21T10:09:50.095Z,34.94
2019-04-21T10:12:20.083Z,34.90
2019-04-21T10:14:51.814Z,35.17
2019-04-21T10:17:33.091Z,35.12
2019-04-21T10:20:03.259Z,34.98
2019-04-21T10:22:33.147Z,35.23
2019-04-21T10:25:03.102Z,34.89
2019-04-21T10:27:34.877Z,35.19
2019-04-21T10:30:07.873Z,35.00
2019-04-21T10:32:38.651Z,34.81
2019-04-21T10:35:09.266Z,34.37
2019-04-21T10:37:50.817Z,34.60
2019-04-21T10:40:11.825Z,34.47
2019-04-21T10:42:42.477Z,34.46
2019-04-21T10:45:12.890Z,34.53
2019-04-21T10:47:43.239Z,34.44
2019-04-21T10:50:14.319Z,34.36
2019-04-21T10:53:18.879Z,34.47
2019-04-21T10:56:03.091Z,34.41
2019-04-21T10:58:24.597Z,34.33
2019-04-21T11:01:04.256Z,34.47
2019-04-21T11:03:55.127Z,34.30
2019-04-21T11:06:26.397Z,34.13
2019-04-21T11:08:57.925Z,34.13
2019-04-21T11:11:28.522Z,34.02
2019-04-21T11:13:59.171Z,33.89
2019-04-21T11:16:29.256Z,33.92
2019-04-21T11:18:59.984Z,34.07
2019-04-21T11:21:31.127Z,33.93
2019-04-21T11:24:01.917Z,34.25
2019-04-21T11:26:32.290Z,34.17
2019-04-21T11:29:03.168Z,34.22
2019-04-21T11:31:33.411Z,34.18
2019-04-21T11:34:03.383Z,34.06
2019-04-21T11:36:33.772Z,33.82
2019-04-21T11:39:46.111Z,33.94
2019-04-21T11:42:17.616Z,34.04
2019-04-21T11:44:49.279Z,33.96
2019-04-21T11:47:30.359Z,34.30
2019-04-21T11:50:07.375Z,33.97
2019-04-21T11:52:38.913Z,34.11
2019-04-21T11:55:09.070Z,33.68
2019-04-21T11:57:43.081Z,34.18
2019-04-21T12:00:11.502Z,34.33
2019-04-21T12:02:41.595Z,34.20
2019-04-21T12:05:11.747Z,34.07
2019-04-21T12:07:43.205Z,33.46
2019-04-21T12:10:15.391Z,33.60
2019-04-21T12:12:45.490Z,33.68
2019-04-21T12:15:16.723Z,33.12
2019-04-21T12:17:48.055Z,33.40
2019-04-21T12:20:18.876Z,33.09
2019-04-21T12:22:54.909Z,33.58
2019-04-21T12:25:27.235Z,33.38
2019-04-21T12:27:58.143Z,33.53
2019-04-21T12:30:29.435Z,33.53
2019-04-21T12:33:12.042Z,33.17
2019-04-21T12:35:42.251Z,33.13
2019-04-21T12:38:13.088Z,32.82
2019-04-21T12:40:44.390Z,33.35
2019-04-21T12:43:14.764Z,33.35
2019-04-21T12:45:46.000Z,33.34
2019-04-21T12:48:18.027Z,33.15
2019-04-21T12:50:48.057Z,33.33
2019-04-21T12:53:19.339Z,33.43
2019-04-21T12:55:49.936Z,33.52
2019-04-21T12:58:23.505Z,33.42
2019-04-21T13:00:54.733Z,33.49
2019-04-21T13:03:25.550Z,33.37
2019-04-21T13:05:57.923Z,33.34
2019-04-21T13:08:29.203Z,33.59
2019-04-21T13:11:00.175Z,33.26
2019-04-21T13:13:30.282Z,33.62
2019-04-21T13:16:01.157Z,33.67
2019-04-21T13:18:31.666Z,33.63
2019-04-21T13:21:02.716Z,33.59
2019-04-21T13:23:34.625Z,33.35
2019-04-21T13:26:06.519Z,33.59
2019-04-21T13:28:37.735Z,33.39
2019-04-21T13:31:08.894Z,33.14
2019-04-21T13:33:39.871Z,33.50
2019-04-21T13:36:11.636Z,33.55
2019-04-21T13:39:36.171Z,33.35
2019-04-21T13:41:47.503Z,33.42
2019-04-21T13:44:13.355Z,33.67
2019-04-21T13:46:45.016Z,33.64
2019-04-21T13:49:19.095Z,33.10
2019-04-21T13:51:50.105Z,33.12
2019-04-21T13:54:20.202Z,32.86
2019-04-21T13:56:50.457Z,33.30
2019-04-21T13:59:22.479Z,33.16
2019-04-21T14:01:53.878Z,33.29
2019-04-21T14:04:25.196Z,33.19
2019-04-21T14:06:56.386Z,32.75
2019-04-21T14:09:37.806Z,33.34
2019-04-21T14:11:59.135Z,33.45
2019-04-21T14:14:30.452Z,33.66
2019-04-21T14:17:00.591Z,33.27
2019-04-21T14:19:33.116Z,33.25
2019-04-21T14:22:03.663Z,33.22
2019-04-21T14:24:34.958Z,33.59
2019-04-21T14:27:05.980Z,33.53
2019-04-21T14:29:37.691Z,33.31
2019-04-21T14:32:08.447Z,33.21
2019-04-21T14:34:39.722Z,33.24
2019-04-21T14:37:10.858Z,33.31
2019-04-21T14:39:50.423Z,33.45
2019-04-21T14:42:12.445Z,33.69
2019-04-21T14:44:42.936Z,33.33
2019-04-21T14:47:37.872Z,33.38
2019-04-21T14:50:30.446Z,33.31
2019-04-21T14:53:18.399Z,33.46
2019-04-21T14:55:49.127Z,33.45
2019-04-21T14:58:19.219Z,33.04
2019-04-21T15:01:00.046Z,33.42
2019-04-21T15:03:30.109Z,33.45
2019-04-21T15:06:01.154Z,33.38
2019-04-21T15:08:31.352Z,33.29
2019-04-21T15:11:01.318Z,33.51
2019-04-21T15:13:32.294Z,33.29
2019-04-21T15:16:02.755Z,33.27
2019-04-21T15:18:34.557Z,33.59
2019-04-21T15:21:05.638Z,33.28
2019-04-21T15:23:36.191Z,33.48
2019-04-21T15:26:08.338Z,33.35
2019-04-21T15:28:40.540Z,33.41
2019-04-21T15:31:12.783Z,33.29
2019-04-21T15:33:43.247Z,33.33
2019-04-21T15:36:15.039Z,33.34
2019-04-21T15:38:46.039Z,32.85
2019-04-21T15:41:16.446Z,33.42
2019-04-21T15:43:48.719Z,33.43
2019-04-21T15:46:18.862Z,33.53
2019-04-21T15:48:48.916Z,33.22
2019-04-21T15:51:19.783Z,33.34
2019-04-21T15:53:51.992Z,33.45
2019-04-21T15:56:26.874Z,33.64
2019-04-21T15:59:14.825Z,33.39
2019-04-21T16:02:01.040Z,33.63
2019-04-21T16:04:32.717Z,33.36
2019-04-21T16:07:03.746Z,33.47
2019-04-21T16:09:35.838Z,33.68
2019-04-21T16:12:05.771Z,33.86
2019-04-21T16:14:36.489Z,34.00
2019-04-21T16:17:07.578Z,34.07
2019-04-21T16:19:38.397Z,33.88
2019-04-21T16:22:10.816Z,33.82
2019-04-21T16:24:42.131Z,33.95
2019-04-21T16:27:12.662Z,34.00
2019-04-21T16:29:43.903Z,34.24
2019-04-21T16:32:18.421Z,34.16
2019-04-21T16:34:54.275Z,34.29
2019-04-21T16:37:19.495Z,34.32
2019-04-21T16:39:49.913Z,34.27
2019-04-21T16:42:20.423Z,34.21
2019-04-21T16:44:50.567Z,34.41
2019-04-21T16:47:21.525Z,34.50
2019-04-21T16:49:51.952Z,34.57
2019-04-21T16:52:25.909Z,34.65
2019-04-21T16:55:14.938Z,34.70
2019-04-21T16:57:59.670Z,34.65
2019-04-21T17:00:36.195Z,34.63
2019-04-21T17:02:58.792Z,34.72
2019-04-21T17:05:30.047Z,34.61
2019-04-21T17:08:01.794Z,34.83
2019-04-21T17:10:32.802Z,35.02
2019-04-21T17:13:03.834Z,35.06
2019-04-21T17:15:51.916Z,34.90
2019-04-21T17:18:22.779Z,34.75
2019-04-21T17:20:46.652Z,34.93
2019-04-21T17:23:09.605Z,35.00
2019-04-21T17:25:39.691Z,35.07
2019-04-21T17:28:09.882Z,34.96
2019-04-21T17:30:40.510Z,34.88
2019-04-21T17:33:16.177Z,34.88
2019-04-21T17:35:42.788Z,34.90
2019-04-21T17:38:14.005Z,34.97
2019-04-21T17:40:44.159Z,34.97
2019-04-21T17:43:17.855Z,35.08
2019-04-21T17:45:46.796Z,35.10
2019-04-21T17:48:25.126Z,35.06
2019-04-21T17:51:01.256Z,35.05
2019-04-21T17:53:46.766Z,35.00
2019-04-21T17:56:31.776Z,34.97
2019-04-21T17:59:04.145Z,35.04
2019-04-21T18:01:40.507Z,35.19
2019-04-21T18:04:12.581Z,35.32
2019-04-21T18:06:47.943Z,35.43
2019-04-21T18:09:26.713Z,35.45
2019-04-21T18:11:52.635Z,35.57
2019-04-21T18:14:05.197Z,35.60
2019-04-21T18:16:40.042Z,35.63
2019-04-21T18:19:07.081Z,35.67
2019-04-21T18:22:19.527Z,35.70
2019-04-21T18:24:59.292Z,35.82
2019-04-21T18:27:26.096Z,35.88
2019-04-21T18:29:58.056Z,35.98
2019-04-21T18:32:34.146Z,36.03
2019-04-21T18:35:29.245Z,36.01
2019-04-21T18:38:23.747Z,36.12
2019-04-21T18:40:51.315Z,36.13
2019-04-21T18:46:31.444Z,36.20
2019-04-21T18:48:47.017Z,36.09
2019-04-21T18:51:20.182Z,36.15
2019-04-21T18:54:25.185Z,36.18
2019-04-21T18:56:50.986Z,36.13
2019-04-21T18:59:08.970Z,36.15
2019-04-21T19:01:40.664Z,36.16
2019-04-21T19:04:14.288Z,36.01
2019-04-21T19:06:59.400Z,36.04
2019-04-21T19:09:47.218Z,36.02
2019-04-21T19:12:08.732Z,36.12
2019-04-21T19:14:42.441Z,36.18
2019-04-21T19:17:38.388Z,36.19
2019-04-21T19:20:02.620Z,36.33
2019-04-21T19:22:13.527Z,36.45
2019-04-21T19:24:49.966Z,36.53
2019-04-21T19:27:47.324Z,36.60
2019-04-21T19:30:01.680Z,36.70
2019-04-21T19:34:40.649Z,36.87
2019-04-21T19:37:13.351Z,36.88
2019-04-21T19:39:53.849Z,36.89
2019-04-21T19:42:28.436Z,36.98
2019-04-21T19:44:59.251Z,36.98
2019-04-21T19:47:42.314Z,37.08
2019-04-21T19:50:05.923Z,37.14
2019-04-21T19:52:36.109Z,37.23
2019-04-21T19:54:54.467Z,37.28
2019-04-21T19:57:25.045Z,37.31
2019-04-21T19:59:59.126Z,37.37
2019-04-21T20:02:26.943Z,37.45
2019-04-21T20:05:02.073Z,37.46
2019-04-21T20:07:44.452Z,37.47
2019-04-21T20:10:22.727Z,37.55
2019-04-21T20:12:53.362Z,37.60
2019-04-21T20:15:30.344Z,37.67
2019-04-21T20:17:53.003Z,37.70
2019-04-21T20:20:11.254Z,37.71
2019-04-21T20:22:45.002Z,37.68
2019-04-21T20:25:17.214Z,37.56
2019-04-21T20:27:55.428Z,37.57
2019-04-21T20:30:40.769Z,37.56
2019-04-21T20:33:17.862Z,37.57
2019-04-21T20:35:46.854Z,37.55
2019-04-21T20:38:08.973Z,37.59
2019-04-21T20:40:35.936Z,37.57
2019-04-21T20:43:22.451Z,37.55
2019-04-21T20:45:49.277Z,37.51
2019-04-21T20:48:13.900Z,37.38
2019-04-21T20:50:49.216Z,37.32
2019-04-21T20:53:22.158Z,37.32
2019-04-21T20:55:52.849Z,37.29
2019-04-21T20:58:23.895Z,37.29
2019-04-21T21:01:22.195Z,37.18
2019-04-21T21:03:30.351Z,37.08
2019-04-21T21:05:53.229Z,37.01
2019-04-21T21:08:35.761Z,37.05
2019-04-21T21:11:02.289Z,37.20
2019-04-21T21:13:53.717Z,37.22
2019-04-21T21:16:13.563Z,37.14
2019-04-21T21:18:56.502Z,37.03
2019-04-21T21:21:11.407Z,36.96
2019-04-21T21:23:44.002Z,36.89
2019-04-21T21:26:19.990Z,36.78
2019-04-21T21:28:42.967Z,36.76
2019-04-21T21:31:25.126Z,36.77
2019-04-21T21:33:59.233Z,36.83
2019-04-21T21:36:19.306Z,36.82
2019-04-21T21:38:55.649Z,36.88
2019-04-21T21:41:17.904Z,36.90
2019-04-21T21:43:41.894Z,37.03
2019-04-21T21:46:28.587Z,37.08
2019-04-21T21:48:56.245Z,37.11
2019-04-21T21:51:29.274Z,37.13
2019-04-21T21:53:48.449Z,37.20
2019-04-21T21:56:18.643Z,37.23
2019-04-21T21:58:50.134Z,37.23
2019-04-21T22:01:28.958Z,37.20
2019-04-21T22:03:59.192Z,37.25
2019-04-21T22:06:36.286Z,37.16
2019-04-21T22:08:56.613Z,37.17
2019-04-21T22:11:26.603Z,37.23
2019-04-21T22:14:02.733Z,37.26
2019-04-21T22:16:39.010Z,37.29
2019-04-21T22:19:16.995Z,37.31
2019-04-21T22:21:53.571Z,37.34
2019-04-21T22:24:09.447Z,37.34
2019-04-21T22:26:36.962Z,37.32
2019-04-21T22:29:07.809Z,37.33
2019-04-21T22:31:40.752Z,37.37
2019-04-21T22:34:14.104Z,37.41
2019-04-21T22:36:48.653Z,37.45
2019-04-21T22:39:31.651Z,37.53
2019-04-21T22:41:47.560Z,37.64
2019-04-21T22:44:18.852Z,37.68
2019-04-21T22:46:59.484Z,37.75
2019-04-21T22:49:23.602Z,37.81
2019-04-21T22:51:53.897Z,37.87
2019-04-21T22:54:29.688Z,37.96
2019-04-21T22:57:04.532Z,38.02
2019-04-21T22:59:30.123Z,38.07
2019-04-21T23:02:01.489Z,38.09
2019-04-21T23:04:38.751Z,38.15
2019-04-21T23:07:11.206Z,38.26
2019-04-21T23:09:37.181Z,38.33
2019-04-21T23:12:08.057Z,38.42
2019-04-21T23:14:47.568Z,38.52
2019-04-21T23:17:42.267Z,38.61
2019-04-21T23:20:07.013Z,38.70
2019-04-21T23:22:32.357Z,38.72
2019-04-21T23:25:09.430Z,38.74
2019-04-21T23:27:33.376Z,38.81
2019-04-21T23:30:13.647Z,38.90
2019-04-21T23:32:35.319Z,38.94
2019-04-21T23:34:55.419Z,39.02
2019-04-21T23:37:26.109Z,39.14
2019-04-21T23:40:01.123Z,39.17
2019-04-21T23:42:33.389Z,39.19
2019-04-21T23:45:02.926Z,39.26
2019-04-21T23:47:43.825Z,39.28
2019-04-21T23:50:17.105Z,39.32
2019-04-21T23:52:35.303Z,39.31
2019-04-21T23:55:07.451Z,39.30
2019-04-21T23:57:41.708Z,39.29
